sensor_id;sensor_type;location;lat;lon;timestamp;temperature;humidity
17994;DHT22;9122;48.406;9.984;2024-03-02T00:01:26;7.80;99.90
17994;DHT22;9122;48.406;9.984;2024-03-02T00:06:56;7.80;99.90
17994;DHT22;9122;48.406;9.984;2024-03-02T00:09:40;7.80;99.90
17994;DHT22;9122;48.406;9.984;2024-03-02T00:12:25;7.80;99.90
17994;DHT22;9122;48.406;9.984;2024-03-02T00:21:08;7.80;99.90
17994;DHT22;9122;48.406;9.984;2024-03-02T00:23:54;7.90;99.90
17994;DHT22;9122;48.406;9.984;2024-03-02T00:26:38;7.70;99.90
17994;DHT22;9122;48.406;9.984;2024-03-02T00:29:23;7.70;99.90
17994;DHT22;9122;48.406;9.984;2024-03-02T00:32:13;9.50;99.90
17994;DHT22;9122;48.406;9.984;2024-03-02T00:34:59;7.70;99.90
17994;DHT22;9122;48.406;9.984;2024-03-02T00:37:43;7.70;99.90
17994;DHT22;9122;48.406;9.984;2024-03-02T00:40:29;7.80;99.90
17994;DHT22;9122;48.406;9.984;2024-03-02T00:43:45;7.70;99.90
17994;DHT22;9122;48.406;9.984;2024-03-02T00:46:36;7.70;99.90
17994;DHT22;9122;48.406;9.984;2024-03-02T00:49:24;7.80;99.90
17994;DHT22;9122;48.406;9.984;2024-03-02T00:52:10;7.80;99.90
17994;DHT22;9122;48.406;9.984;2024-03-02T00:54:57;7.70;99.90
17994;DHT22;9122;48.406;9.984;2024-03-02T00:57:41;7.70;99.90
17994;DHT22;9122;48.406;9.984;2024-03-02T01:00:26;7.70;99.90
17994;DHT22;9122;48.406;9.984;2024-03-02T01:03:11;7.70;99.90
17994;DHT22;9122;48.406;9.984;2024-03-02T01:05:55;7.70;99.90
17994;DHT22;9122;48.406;9.984;2024-03-02T01:08:39;7.70;99.90
17994;DHT22;9122;48.406;9.984;2024-03-02T01:11:24;7.80;99.90
17994;DHT22;9122;48.406;9.984;2024-03-02T01:14:08;7.70;99.90
17994;DHT22;9122;48.406;9.984;2024-03-02T01:16:52;7.70;99.90
17994;DHT22;9122;48.406;9.984;2024-03-02T01:19:37;7.80;99.90
17994;DHT22;9122;48.406;9.984;2024-03-02T01:22:23;7.60;99.90
17994;DHT22;9122;48.406;9.984;2024-03-02T01:25:09;7.60;99.90
17994;DHT22;9122;48.406;9.984;2024-03-02T01:27:54;7.60;99.90
17994;DHT22;9122;48.406;9.984;2024-03-02T01:30:38;7.60;99.90
17994;DHT22;9122;48.406;9.984;2024-03-02T01:33:22;7.60;99.90
17994;DHT22;9122;48.406;9.984;2024-03-02T01:38:52;7.60;99.90
17994;DHT22;9122;48.406;9.984;2024-03-02T01:41:37;7.60;99.90
17994;DHT22;9122;48.406;9.984;2024-03-02T01:44:21;7.60;99.90
17994;DHT22;9122;48.406;9.984;2024-03-02T01:49:51;7.70;99.90
17994;DHT22;9122;48.406;9.984;2024-03-02T01:52:35;7.20;99.90
17994;DHT22;9122;48.406;9.984;2024-03-02T01:55:19;8.10;99.90
17994;DHT22;9122;48.406;9.984;2024-03-02T01:58:03;7.60;99.90
17994;DHT22;9122;48.406;9.984;2024-03-02T02:00:48;8.00;99.90
17994;DHT22;9122;48.406;9.984;2024-03-02T02:03:32;7.60;99.90
17994;DHT22;9122;48.406;9.984;2024-03-02T02:06:16;7.60;99.90
17994;DHT22;9122;48.406;9.984;2024-03-02T02:09:01;7.70;99.90
17994;DHT22;9122;48.406;9.984;2024-03-02T02:11:46;7.60;99.90
17994;DHT22;9122;48.406;9.984;2024-03-02T02:14:31;7.60;99.90
17994;DHT22;9122;48.406;9.984;2024-03-02T02:20:01;7.60;99.90
17994;DHT22;9122;48.406;9.984;2024-03-02T02:23:01;7.60;99.90
17994;DHT22;9122;48.406;9.984;2024-03-02T02:25:46;7.60;99.90
17994;DHT22;9122;48.406;9.984;2024-03-02T02:28:30;7.60;99.90
17994;DHT22;9122;48.406;9.984;2024-03-02T02:31:14;7.60;99.90
17994;DHT22;9122;48.406;9.984;2024-03-02T02:33:58;7.80;99.90
17994;DHT22;9122;48.406;9.984;2024-03-02T02:36:43;7.60;99.90
17994;DHT22;9122;48.406;9.984;2024-03-02T02:39:28;7.00;99.90
17994;DHT22;9122;48.406;9.984;2024-03-02T02:42:12;7.50;99.90
17994;DHT22;9122;48.406;9.984;2024-03-02T02:44:57;7.50;99.90
17994;DHT22;9122;48.406;9.984;2024-03-02T02:47:42;7.40;99.90
17994;DHT22;9122;48.406;9.984;2024-03-02T02:50:26;7.50;99.90
17994;DHT22;9122;48.406;9.984;2024-03-02T02:53:11;7.50;99.90
17994;DHT22;9122;48.406;9.984;2024-03-02T02:58:41;7.40;99.90
17994;DHT22;9122;48.406;9.984;2024-03-02T03:01:45;7.40;99.90
17994;DHT22;9122;48.406;9.984;2024-03-02T03:04:30;7.10;99.90
17994;DHT22;9122;48.406;9.984;2024-03-02T03:07:15;7.40;99.90
17994;DHT22;9122;48.406;9.984;2024-03-02T03:09:59;7.40;99.90
17994;DHT22;9122;48.406;9.984;2024-03-02T03:12:43;7.40;99.90
17994;DHT22;9122;48.406;9.984;2024-03-02T03:15:28;7.40;99.90
17994;DHT22;9122;48.406;9.984;2024-03-02T03:18:12;7.40;99.90
17994;DHT22;9122;48.406;9.984;2024-03-02T03:23:41;7.40;99.90
17994;DHT22;9122;48.406;9.984;2024-03-02T03:26:25;7.40;99.90
17994;DHT22;9122;48.406;9.984;2024-03-02T03:29:09;7.30;99.90
17994;DHT22;9122;48.406;9.984;2024-03-02T03:31:53;7.30;99.90
17994;DHT22;9122;48.406;9.984;2024-03-02T03:34:37;7.30;99.90
17994;DHT22;9122;48.406;9.984;2024-03-02T03:37:22;6.90;99.90
17994;DHT22;9122;48.406;9.984;2024-03-02T03:40:06;7.30;99.90
17994;DHT22;9122;48.406;9.984;2024-03-02T03:42:54;7.30;99.90
17994;DHT22;9122;48.406;9.984;2024-03-02T03:45:40;7.30;99.90
17994;DHT22;9122;48.406;9.984;2024-03-02T03:51:14;7.30;99.90
17994;DHT22;9122;48.406;9.984;2024-03-02T03:53:58;7.30;99.90
17994;DHT22;9122;48.406;9.984;2024-03-02T04:02:12;7.20;99.90
17994;DHT22;9122;48.406;9.984;2024-03-02T04:04:57;7.90;99.90
17994;DHT22;9122;48.406;9.984;2024-03-02T04:07:41;6.90;99.90
17994;DHT22;9122;48.406;9.984;2024-03-02T04:10:27;6.70;99.90
17994;DHT22;9122;48.406;9.984;2024-03-02T04:13:11;7.20;99.90
17994;DHT22;9122;48.406;9.984;2024-03-02T04:18:40;7.20;99.90
17994;DHT22;9122;48.406;9.984;2024-03-02T04:21:24;7.90;99.90
17994;DHT22;9122;48.406;9.984;2024-03-02T04:24:08;6.80;99.90
17994;DHT22;9122;48.406;9.984;2024-03-02T04:26:52;7.20;99.90
17994;DHT22;9122;48.406;9.984;2024-03-02T04:29:36;7.20;99.90
17994;DHT22;9122;48.406;9.984;2024-03-02T04:32:20;8.20;99.90
17994;DHT22;9122;48.406;9.984;2024-03-02T04:35:05;7.10;99.90
17994;DHT22;9122;48.406;9.984;2024-03-02T04:37:52;7.10;99.90
17994;DHT22;9122;48.406;9.984;2024-03-02T04:40:37;8.10;99.90
17994;DHT22;9122;48.406;9.984;2024-03-02T04:46:05;7.10;99.90
17994;DHT22;9122;48.406;9.984;2024-03-02T04:48:51;7.20;99.90
17994;DHT22;9122;48.406;9.984;2024-03-02T04:54:24;7.10;99.90
17994;DHT22;9122;48.406;9.984;2024-03-02T04:57:08;7.90;99.90
17994;DHT22;9122;48.406;9.984;2024-03-02T05:02:37;7.10;99.90
17994;DHT22;9122;48.406;9.984;2024-03-02T05:05:21;7.10;99.90
17994;DHT22;9122;48.406;9.984;2024-03-02T05:08:05;7.40;99.90
17994;DHT22;9122;48.406;9.984;2024-03-02T05:10:49;7.10;99.90
17994;DHT22;9122;48.406;9.984;2024-03-02T05:16:18;7.00;99.90
17994;DHT22;9122;48.406;9.984;2024-03-02T05:19:02;7.00;99.90
17994;DHT22;9122;48.406;9.984;2024-03-02T05:24:31;7.00;99.90
17994;DHT22;9122;48.406;9.984;2024-03-02T05:27:15;7.10;99.90
17994;DHT22;9122;48.406;9.984;2024-03-02T05:30:00;7.00;99.90
17994;DHT22;9122;48.406;9.984;2024-03-02T05:32:44;8.10;99.90
17994;DHT22;9122;48.406;9.984;2024-03-02T05:35:28;7.80;99.90
17994;DHT22;9122;48.406;9.984;2024-03-02T05:38:12;6.60;99.90
17994;DHT22;9122;48.406;9.984;2024-03-02T05:40:56;6.60;99.90
17994;DHT22;9122;48.406;9.984;2024-03-02T05:43:40;7.00;99.90
17994;DHT22;9122;48.406;9.984;2024-03-02T05:46:25;7.00;99.90
17994;DHT22;9122;48.406;9.984;2024-03-02T05:49:09;7.10;99.90
17994;DHT22;9122;48.406;9.984;2024-03-02T05:51:54;7.10;99.90
17994;DHT22;9122;48.406;9.984;2024-03-02T05:54:38;6.50;99.90
17994;DHT22;9122;48.406;9.984;2024-03-02T05:57:23;7.20;99.90
17994;DHT22;9122;48.406;9.984;2024-03-02T06:00:22;6.90;99.90
17994;DHT22;9122;48.406;9.984;2024-03-02T06:03:06;7.00;99.90
17994;DHT22;9122;48.406;9.984;2024-03-02T06:05:54;6.80;99.90
17994;DHT22;9122;48.406;9.984;2024-03-02T06:08:39;6.90;99.90
17994;DHT22;9122;48.406;9.984;2024-03-02T06:11:23;6.90;99.90
17994;DHT22;9122;48.406;9.984;2024-03-02T06:14:08;6.90;99.90
17994;DHT22;9122;48.406;9.984;2024-03-02T06:16:53;7.50;99.90
17994;DHT22;9122;48.406;9.984;2024-03-02T06:22:23;6.90;99.90
17994;DHT22;9122;48.406;9.984;2024-03-02T06:25:08;6.90;99.90
17994;DHT22;9122;48.406;9.984;2024-03-02T06:27:53;6.90;99.90
17994;DHT22;9122;48.406;9.984;2024-03-02T06:30:38;6.80;99.90
17994;DHT22;9122;48.406;9.984;2024-03-02T06:33:22;6.90;99.90
17994;DHT22;9122;48.406;9.984;2024-03-02T06:36:07;7.40;99.90
17994;DHT22;9122;48.406;9.984;2024-03-02T06:38:55;6.90;99.90
17994;DHT22;9122;48.406;9.984;2024-03-02T06:41:39;8.20;99.90
17994;DHT22;9122;48.406;9.984;2024-03-02T06:44:23;7.90;99.90
17994;DHT22;9122;48.406;9.984;2024-03-02T06:47:08;6.70;99.90
17994;DHT22;9122;48.406;9.984;2024-03-02T06:52:37;6.80;99.90
17994;DHT22;9122;48.406;9.984;2024-03-02T06:55:23;7.50;99.90
17994;DHT22;9122;48.406;9.984;2024-03-02T06:58:08;6.80;99.90
17994;DHT22;9122;48.406;9.984;2024-03-02T07:03:37;6.80;99.90
17994;DHT22;9122;48.406;9.984;2024-03-02T07:06:23;6.80;99.90
17994;DHT22;9122;48.406;9.984;2024-03-02T07:09:07;6.80;99.90
17994;DHT22;9122;48.406;9.984;2024-03-02T07:11:54;6.80;99.90
17994;DHT22;9122;48.406;9.984;2024-03-02T07:14:38;8.90;99.90
17994;DHT22;9122;48.406;9.984;2024-03-02T07:17:40;6.80;99.90
17994;DHT22;9122;48.406;9.984;2024-03-02T07:20:32;7.00;99.90
17994;DHT22;9122;48.406;9.984;2024-03-02T07:23:16;7.00;99.90
17994;DHT22;9122;48.406;9.984;2024-03-02T07:26:01;6.80;99.90
17994;DHT22;9122;48.406;9.984;2024-03-02T07:28:46;6.80;99.90
17994;DHT22;9122;48.406;9.984;2024-03-02T07:31:31;6.40;99.90
17994;DHT22;9122;48.406;9.984;2024-03-02T07:34:15;7.00;99.90
17994;DHT22;9122;48.406;9.984;2024-03-02T07:37:00;6.80;99.90
17994;DHT22;9122;48.406;9.984;2024-03-02T07:39:45;6.70;99.90
17994;DHT22;9122;48.406;9.984;2024-03-02T07:45:14;6.80;99.90
17994;DHT22;9122;48.406;9.984;2024-03-02T07:47:59;6.90;99.90
17994;DHT22;9122;48.406;9.984;2024-03-02T07:50:43;6.80;99.90
17994;DHT22;9122;48.406;9.984;2024-03-02T07:56:13;6.80;99.90
17994;DHT22;9122;48.406;9.984;2024-03-02T07:58:58;6.90;99.90
17994;DHT22;9122;48.406;9.984;2024-03-02T08:01:45;6.80;99.90
17994;DHT22;9122;48.406;9.984;2024-03-02T08:04:29;7.80;99.90
17994;DHT22;9122;48.406;9.984;2024-03-02T08:07:14;6.90;99.90
17994;DHT22;9122;48.406;9.984;2024-03-02T08:09:58;7.60;99.90
17994;DHT22;9122;48.406;9.984;2024-03-02T08:12:42;7.00;99.90
17994;DHT22;9122;48.406;9.984;2024-03-02T08:15:30;6.80;99.90
17994;DHT22;9122;48.406;9.984;2024-03-02T08:18:14;7.00;99.90
17994;DHT22;9122;48.406;9.984;2024-03-02T08:20:59;6.80;99.90
17994;DHT22;9122;48.406;9.984;2024-03-02T08:23:44;6.90;99.90
17994;DHT22;9122;48.406;9.984;2024-03-02T08:26:28;6.50;99.90
17994;DHT22;9122;48.406;9.984;2024-03-02T08:29:16;6.90;99.90
17994;DHT22;9122;48.406;9.984;2024-03-02T08:32:01;9.90;99.90
17994;DHT22;9122;48.406;9.984;2024-03-02T08:34:46;6.80;99.90
17994;DHT22;9122;48.406;9.984;2024-03-02T08:37:30;6.80;99.90
17994;DHT22;9122;48.406;9.984;2024-03-02T08:40:15;6.80;99.90
17994;DHT22;9122;48.406;9.984;2024-03-02T08:42:59;6.80;99.90
17994;DHT22;9122;48.406;9.984;2024-03-02T08:45:45;6.80;99.90
17994;DHT22;9122;48.406;9.984;2024-03-02T08:48:29;6.80;99.90
17994;DHT22;9122;48.406;9.984;2024-03-02T08:51:13;6.80;99.90
17994;DHT22;9122;48.406;9.984;2024-03-02T08:53:59;8.00;99.90
17994;DHT22;9122;48.406;9.984;2024-03-02T08:59:27;6.90;99.90
17994;DHT22;9122;48.406;9.984;2024-03-02T09:04:57;6.90;99.90
17994;DHT22;9122;48.406;9.984;2024-03-02T09:07:41;6.90;99.90
17994;DHT22;9122;48.406;9.984;2024-03-02T09:10:25;6.90;99.90
17994;DHT22;9122;48.406;9.984;2024-03-02T09:13:10;7.00;99.90
17994;DHT22;9122;48.406;9.984;2024-03-02T09:15:54;6.90;99.90
17994;DHT22;9122;48.406;9.984;2024-03-02T09:18:39;7.90;99.90
17994;DHT22;9122;48.406;9.984;2024-03-02T09:21:23;7.10;99.90
17994;DHT22;9122;48.406;9.984;2024-03-02T09:24:09;7.00;99.90
17994;DHT22;9122;48.406;9.984;2024-03-02T09:26:54;6.80;99.90
17994;DHT22;9122;48.406;9.984;2024-03-02T09:29:39;7.10;99.90
17994;DHT22;9122;48.406;9.984;2024-03-02T09:32:23;7.30;99.90
17994;DHT22;9122;48.406;9.984;2024-03-02T09:35:08;7.20;99.90
17994;DHT22;9122;48.406;9.984;2024-03-02T09:37:53;7.20;99.90
17994;DHT22;9122;48.406;9.984;2024-03-02T09:40:37;7.60;99.90
17994;DHT22;9122;48.406;9.984;2024-03-02T09:43:21;7.30;99.90
17994;DHT22;9122;48.406;9.984;2024-03-02T09:46:07;7.40;99.90
17994;DHT22;9122;48.406;9.984;2024-03-02T09:48:53;8.10;99.90
17994;DHT22;9122;48.406;9.984;2024-03-02T09:51:37;7.40;99.90
17994;DHT22;9122;48.406;9.984;2024-03-02T09:54:22;7.40;99.90
17994;DHT22;9122;48.406;9.984;2024-03-02T09:57:06;7.50;99.90
17994;DHT22;9122;48.406;9.984;2024-03-02T09:59:51;7.50;99.90
17994;DHT22;9122;48.406;9.984;2024-03-02T10:02:36;7.50;99.90
17994;DHT22;9122;48.406;9.984;2024-03-02T10:05:24;7.70;99.90
17994;DHT22;9122;48.406;9.984;2024-03-02T10:08:10;7.60;99.90
17994;DHT22;9122;48.406;9.984;2024-03-02T10:10:54;7.80;99.90
17994;DHT22;9122;48.406;9.984;2024-03-02T10:13:39;7.80;99.90
17994;DHT22;9122;48.406;9.984;2024-03-02T10:19:20;8.20;99.90
17994;DHT22;9122;48.406;9.984;2024-03-02T10:22:07;8.20;99.90
17994;DHT22;9122;48.406;9.984;2024-03-02T10:24:51;9.70;99.90
17994;DHT22;9122;48.406;9.984;2024-03-02T10:30:21;8.50;99.90
17994;DHT22;9122;48.406;9.984;2024-03-02T10:33:06;8.10;99.90
17994;DHT22;9122;48.406;9.984;2024-03-02T10:35:50;8.80;99.90
17994;DHT22;9122;48.406;9.984;2024-03-02T10:38:35;9.30;99.90
17994;DHT22;9122;48.406;9.984;2024-03-02T10:41:23;10.20;99.90
17994;DHT22;9122;48.406;9.984;2024-03-02T10:44:09;10.40;99.90
17994;DHT22;9122;48.406;9.984;2024-03-02T10:46:56;8.10;99.80
17994;DHT22;9122;48.406;9.984;2024-03-02T10:49:47;10.90;99.30
17994;DHT22;9122;48.406;9.984;2024-03-02T10:52:32;10.90;99.60
17994;DHT22;9122;48.406;9.984;2024-03-02T10:55:19;11.20;99.00
17994;DHT22;9122;48.406;9.984;2024-03-02T10:58:04;11.40;98.50
17994;DHT22;9122;48.406;9.984;2024-03-02T11:00:51;12.30;99.90
17994;DHT22;9122;48.406;9.984;2024-03-02T11:03:36;12.30;97.30
17994;DHT22;9122;48.406;9.984;2024-03-02T11:09:11;13.10;95.50
17994;DHT22;9122;48.406;9.984;2024-03-02T11:14:55;13.00;95.30
17994;DHT22;9122;48.406;9.984;2024-03-02T11:17:40;12.70;95.60
17994;DHT22;9122;48.406;9.984;2024-03-02T11:20:25;12.60;95.80
17994;DHT22;9122;48.406;9.984;2024-03-02T11:23:10;12.40;96.10
17994;DHT22;9122;48.406;9.984;2024-03-02T11:26:21;12.10;96.00
17994;DHT22;9122;48.406;9.984;2024-03-02T11:29:06;12.10;96.30
17994;DHT22;9122;48.406;9.984;2024-03-02T11:31:58;12.00;96.50
17994;DHT22;9122;48.406;9.984;2024-03-02T11:34:46;11.90;99.90
17994;DHT22;9122;48.406;9.984;2024-03-02T11:37:30;11.90;96.60
17994;DHT22;9122;48.406;9.984;2024-03-02T11:40:21;11.80;96.70
17994;DHT22;9122;48.406;9.984;2024-03-02T11:43:07;11.80;96.60
17994;DHT22;9122;48.406;9.984;2024-03-02T11:45:57;11.60;99.90
17994;DHT22;9122;48.406;9.984;2024-03-02T11:48:42;11.70;96.50
17994;DHT22;9122;48.406;9.984;2024-03-02T11:51:33;11.60;95.40
17994;DHT22;9122;48.406;9.984;2024-03-02T11:54:18;11.60;95.70
17994;DHT22;9122;48.406;9.984;2024-03-02T11:57:03;11.70;95.80
17994;DHT22;9122;48.406;9.984;2024-03-02T11:59:49;11.60;95.40
17994;DHT22;9122;48.406;9.984;2024-03-02T12:02:37;11.90;99.90
17994;DHT22;9122;48.406;9.984;2024-03-02T12:05:22;11.70;95.20
17994;DHT22;9122;48.406;9.984;2024-03-02T12:08:07;11.70;95.30
17994;DHT22;9122;48.406;9.984;2024-03-02T12:11:01;11.80;95.60
17994;DHT22;9122;48.406;9.984;2024-03-02T12:13:53;11.80;95.90
17994;DHT22;9122;48.406;9.984;2024-03-02T12:16:44;11.80;96.20
17994;DHT22;9122;48.406;9.984;2024-03-02T12:19:29;11.80;96.50
17994;DHT22;9122;48.406;9.984;2024-03-02T12:25:00;11.90;96.50
17994;DHT22;9122;48.406;9.984;2024-03-02T12:27:46;11.90;97.00
17994;DHT22;9122;48.406;9.984;2024-03-02T12:30:35;12.00;99.90
17994;DHT22;9122;48.406;9.984;2024-03-02T12:33:19;12.00;97.40
17994;DHT22;9122;48.406;9.984;2024-03-02T12:36:04;12.00;97.40
17994;DHT22;9122;48.406;9.984;2024-03-02T12:38:52;12.00;97.60
17994;DHT22;9122;48.406;9.984;2024-03-02T12:41:37;12.10;97.70
17994;DHT22;9122;48.406;9.984;2024-03-02T12:44:22;12.00;97.70
17994;DHT22;9122;48.406;9.984;2024-03-02T12:47:06;12.10;97.70
17994;DHT22;9122;48.406;9.984;2024-03-02T12:52:38;12.10;97.60
17994;DHT22;9122;48.406;9.984;2024-03-02T12:55:23;12.10;98.00
17994;DHT22;9122;48.406;9.984;2024-03-02T12:58:07;12.10;98.10
17994;DHT22;9122;48.406;9.984;2024-03-02T13:01:06;12.20;98.00
17994;DHT22;9122;48.406;9.984;2024-03-02T13:03:53;12.20;97.90
17994;DHT22;9122;48.406;9.984;2024-03-02T13:06:39;12.20;97.80
17994;DHT22;9122;48.406;9.984;2024-03-02T13:09:24;12.30;97.70
17994;DHT22;9122;48.406;9.984;2024-03-02T13:12:08;12.30;97.80
17994;DHT22;9122;48.406;9.984;2024-03-02T13:14:55;12.30;97.80
17994;DHT22;9122;48.406;9.984;2024-03-02T13:17:41;12.30;97.90
17994;DHT22;9122;48.406;9.984;2024-03-02T13:20:30;12.40;97.50
17994;DHT22;9122;48.406;9.984;2024-03-02T13:23:15;12.40;97.80
17994;DHT22;9122;48.406;9.984;2024-03-02T13:26:01;12.50;99.90
17994;DHT22;9122;48.406;9.984;2024-03-02T13:28:45;12.30;97.80
17994;DHT22;9122;48.406;9.984;2024-03-02T13:31:29;12.40;99.90
17994;DHT22;9122;48.406;9.984;2024-03-02T13:34:14;12.40;98.10
17994;DHT22;9122;48.406;9.984;2024-03-02T13:36:58;12.50;98.00
17994;DHT22;9122;48.406;9.984;2024-03-02T13:39:42;12.50;98.20
17994;DHT22;9122;48.406;9.984;2024-03-02T13:42:27;12.50;98.40
17994;DHT22;9122;48.406;9.984;2024-03-02T13:45:11;12.60;99.90
17994;DHT22;9122;48.406;9.984;2024-03-02T13:50:40;12.60;97.90
17994;DHT22;9122;48.406;9.984;2024-03-02T13:53:25;12.60;98.00
17994;DHT22;9122;48.406;9.984;2024-03-02T13:56:09;12.70;99.90
17994;DHT22;9122;48.406;9.984;2024-03-02T13:58:53;12.70;98.00
17994;DHT22;9122;48.406;9.984;2024-03-02T14:01:38;12.70;97.90
17994;DHT22;9122;48.406;9.984;2024-03-02T14:04:22;12.60;97.80
17994;DHT22;9122;48.406;9.984;2024-03-02T14:07:07;12.70;98.00
17994;DHT22;9122;48.406;9.984;2024-03-02T14:09:51;12.70;97.90
17994;DHT22;9122;48.406;9.984;2024-03-02T14:12:36;12.70;97.80
17994;DHT22;9122;48.406;9.984;2024-03-02T14:15:22;12.70;99.90
17994;DHT22;9122;48.406;9.984;2024-03-02T14:18:06;12.90;97.60
17994;DHT22;9122;48.406;9.984;2024-03-02T14:20:51;12.80;99.90
17994;DHT22;9122;48.406;9.984;2024-03-02T14:23:36;12.70;99.90
17994;DHT22;9122;48.406;9.984;2024-03-02T14:26:21;13.00;99.90
17994;DHT22;9122;48.406;9.984;2024-03-02T14:29:05;12.80;97.60
17994;DHT22;9122;48.406;9.984;2024-03-02T14:31:49;12.80;97.40
17994;DHT22;9122;48.406;9.984;2024-03-02T14:34:34;12.90;99.90
17994;DHT22;9122;48.406;9.984;2024-03-02T14:37:18;12.80;97.30
17994;DHT22;9122;48.406;9.984;2024-03-02T14:40:03;12.90;97.00
17994;DHT22;9122;48.406;9.984;2024-03-02T14:42:50;12.90;96.70
17994;DHT22;9122;48.406;9.984;2024-03-02T14:45:34;12.90;96.50
17994;DHT22;9122;48.406;9.984;2024-03-02T14:48:18;12.90;96.40
17994;DHT22;9122;48.406;9.984;2024-03-02T14:51:03;12.90;99.90
17994;DHT22;9122;48.406;9.984;2024-03-02T14:53:48;12.90;96.20
17994;DHT22;9122;48.406;9.984;2024-03-02T14:56:32;13.00;96.10
17994;DHT22;9122;48.406;9.984;2024-03-02T14:59:16;13.00;96.20
17994;DHT22;9122;48.406;9.984;2024-03-02T15:02:01;13.00;96.30
17994;DHT22;9122;48.406;9.984;2024-03-02T15:04:45;13.00;96.30
17994;DHT22;9122;48.406;9.984;2024-03-02T15:07:32;13.00;96.30
17994;DHT22;9122;48.406;9.984;2024-03-02T15:10:16;13.00;96.30
17994;DHT22;9122;48.406;9.984;2024-03-02T15:13:01;13.00;96.30
17994;DHT22;9122;48.406;9.984;2024-03-02T15:15:46;13.10;96.30
17994;DHT22;9122;48.406;9.984;2024-03-02T15:18:30;13.00;96.30
17994;DHT22;9122;48.406;9.984;2024-03-02T15:21:14;13.30;96.40
17994;DHT22;9122;48.406;9.984;2024-03-02T15:23:58;13.10;96.40
17994;DHT22;9122;48.406;9.984;2024-03-02T15:26:43;13.00;96.30
17994;DHT22;9122;48.406;9.984;2024-03-02T15:29:27;13.10;99.90
17994;DHT22;9122;48.406;9.984;2024-03-02T15:32:13;13.10;96.40
17994;DHT22;9122;48.406;9.984;2024-03-02T15:34:57;13.10;96.40
17994;DHT22;9122;48.406;9.984;2024-03-02T15:37:41;13.10;96.30
17994;DHT22;9122;48.406;9.984;2024-03-02T15:40:26;13.20;99.90
17994;DHT22;9122;48.406;9.984;2024-03-02T15:48:43;13.10;95.90
17994;DHT22;9122;48.406;9.984;2024-03-02T15:51:30;13.00;99.90
17994;DHT22;9122;48.406;9.984;2024-03-02T15:54:15;13.00;96.20
17994;DHT22;9122;48.406;9.984;2024-03-02T15:56:59;13.00;96.30
17994;DHT22;9122;48.406;9.984;2024-03-02T15:59:44;13.00;96.20
17994;DHT22;9122;48.406;9.984;2024-03-02T16:02:29;13.00;96.10
17994;DHT22;9122;48.406;9.984;2024-03-02T16:05:14;12.90;96.10
17994;DHT22;9122;48.406;9.984;2024-03-02T16:07:58;12.90;96.10
17994;DHT22;9122;48.406;9.984;2024-03-02T16:10:43;12.90;96.30
17994;DHT22;9122;48.406;9.984;2024-03-02T16:13:27;12.90;96.30
17994;DHT22;9122;48.406;9.984;2024-03-02T16:18:56;12.90;99.90
17994;DHT22;9122;48.406;9.984;2024-03-02T16:21:40;12.80;96.50
17994;DHT22;9122;48.406;9.984;2024-03-02T16:24:24;12.80;96.60
17994;DHT22;9122;48.406;9.984;2024-03-02T16:27:08;12.80;97.00
17994;DHT22;9122;48.406;9.984;2024-03-02T16:29:53;12.80;96.70
17994;DHT22;9122;48.406;9.984;2024-03-02T16:32:39;12.70;96.70
17994;DHT22;9122;48.406;9.984;2024-03-02T16:35:23;12.70;96.60
17994;DHT22;9122;48.406;9.984;2024-03-02T16:38:07;12.70;96.50
17994;DHT22;9122;48.406;9.984;2024-03-02T16:40:52;12.60;99.90
17994;DHT22;9122;48.406;9.984;2024-03-02T16:43:36;12.60;96.60
17994;DHT22;9122;48.406;9.984;2024-03-02T16:46:20;12.60;96.80
17994;DHT22;9122;48.406;9.984;2024-03-02T16:49:04;12.70;99.90
17994;DHT22;9122;48.406;9.984;2024-03-02T16:51:48;12.60;96.90
17994;DHT22;9122;48.406;9.984;2024-03-02T16:54:33;12.60;96.90
17994;DHT22;9122;48.406;9.984;2024-03-02T17:00:02;12.50;96.70
17994;DHT22;9122;48.406;9.984;2024-03-02T17:02:47;12.50;97.00
17994;DHT22;9122;48.406;9.984;2024-03-02T17:05:31;12.40;97.20
17994;DHT22;9122;48.406;9.984;2024-03-02T17:08:15;12.40;97.30
17994;DHT22;9122;48.406;9.984;2024-03-02T17:10:59;12.40;97.40
17994;DHT22;9122;48.406;9.984;2024-03-02T17:13:43;12.40;97.40
17994;DHT22;9122;48.406;9.984;2024-03-02T17:16:28;12.40;97.50
17994;DHT22;9122;48.406;9.984;2024-03-02T17:19:13;12.30;97.50
17994;DHT22;9122;48.406;9.984;2024-03-02T17:21:57;12.30;97.50
17994;DHT22;9122;48.406;9.984;2024-03-02T17:24:41;12.30;97.20
17994;DHT22;9122;48.406;9.984;2024-03-02T17:27:26;12.20;97.50
17994;DHT22;9122;48.406;9.984;2024-03-02T17:30:14;12.20;97.50
17994;DHT22;9122;48.406;9.984;2024-03-02T17:32:59;12.20;97.60
17994;DHT22;9122;48.406;9.984;2024-03-02T17:35:44;12.20;97.50
17994;DHT22;9122;48.406;9.984;2024-03-02T17:38:31;12.30;97.50
17994;DHT22;9122;48.406;9.984;2024-03-02T17:41:15;12.10;97.60
17994;DHT22;9122;48.406;9.984;2024-03-02T17:43:59;12.10;99.90
17994;DHT22;9122;48.406;9.984;2024-03-02T17:46:43;12.10;99.90
17994;DHT22;9122;48.406;9.984;2024-03-02T17:52:12;12.00;97.30
17994;DHT22;9122;48.406;9.984;2024-03-02T17:54:56;12.00;97.70
17994;DHT22;9122;48.406;9.984;2024-03-02T17:57:41;12.00;97.60
17994;DHT22;9122;48.406;9.984;2024-03-02T18:00:25;11.90;97.60
17994;DHT22;9122;48.406;9.984;2024-03-02T18:03:10;11.90;97.70
17994;DHT22;9122;48.406;9.984;2024-03-02T18:05:54;11.80;97.60
17994;DHT22;9122;48.406;9.984;2024-03-02T18:08:38;11.80;97.70
17994;DHT22;9122;48.406;9.984;2024-03-02T18:11:23;11.80;97.80
17994;DHT22;9122;48.406;9.984;2024-03-02T18:14:08;11.70;99.90
17994;DHT22;9122;48.406;9.984;2024-03-02T18:16:53;11.70;97.80
17994;DHT22;9122;48.406;9.984;2024-03-02T18:19:37;11.70;97.90
17994;DHT22;9122;48.406;9.984;2024-03-02T18:22:21;11.70;98.00
17994;DHT22;9122;48.406;9.984;2024-03-02T18:25:06;11.70;98.10
17994;DHT22;9122;48.406;9.984;2024-03-02T18:27:50;11.60;98.20
17994;DHT22;9122;48.406;9.984;2024-03-02T18:30:35;11.60;98.30
17994;DHT22;9122;48.406;9.984;2024-03-02T18:33:19;11.60;98.40
17994;DHT22;9122;48.406;9.984;2024-03-02T18:36:04;11.50;99.90
17994;DHT22;9122;48.406;9.984;2024-03-02T18:38:49;11.50;99.90
17994;DHT22;9122;48.406;9.984;2024-03-02T18:47:03;11.40;98.50
17994;DHT22;9122;48.406;9.984;2024-03-02T18:49:47;11.40;99.90
17994;DHT22;9122;48.406;9.984;2024-03-02T18:52:33;11.40;99.90
17994;DHT22;9122;48.406;9.984;2024-03-02T18:55:19;11.40;99.10
17994;DHT22;9122;48.406;9.984;2024-03-02T18:58:03;11.30;98.90
17994;DHT22;9122;48.406;9.984;2024-03-02T19:00:48;11.30;99.00
17994;DHT22;9122;48.406;9.984;2024-03-02T19:03:32;11.30;99.00
17994;DHT22;9122;48.406;9.984;2024-03-02T19:06:17;11.20;98.70
17994;DHT22;9122;48.406;9.984;2024-03-02T19:09:01;11.00;99.10
17994;DHT22;9122;48.406;9.984;2024-03-02T19:11:46;11.20;99.20
17994;DHT22;9122;48.406;9.984;2024-03-02T19:14:30;11.10;99.90
17994;DHT22;9122;48.406;9.984;2024-03-02T19:17:15;11.10;99.20
17994;DHT22;9122;48.406;9.984;2024-03-02T19:19:59;11.10;99.20
17994;DHT22;9122;48.406;9.984;2024-03-02T19:22:44;11.50;99.40
17994;DHT22;9122;48.406;9.984;2024-03-02T19:25:28;11.00;99.30
17994;DHT22;9122;48.406;9.984;2024-03-02T19:28:12;11.00;99.30
17994;DHT22;9122;48.406;9.984;2024-03-02T19:30:57;11.70;99.50
17994;DHT22;9122;48.406;9.984;2024-03-02T19:36:26;11.00;99.10
17994;DHT22;9122;48.406;9.984;2024-03-02T19:39:12;10.90;99.50